createdAt,value
2022-10-01T00:00:09.012Z,22.40
2022-10-01T00:02:10.617Z,22.30
2022-10-01T00:04:12.221Z,22.30
2022-10-01T00:06:19.971Z,22.30
2022-10-01T00:08:22.022Z,22.30
2022-10-01T00:10:23.897Z,22.30
2022-10-01T00:12:25.484Z,22.30
2022-10-01T00:14:27.573Z,22.30
2022-10-01T00:16:30.836Z,22.30
2022-10-01T00:18:34.604Z,22.30
2022-10-01T00:20:40.254Z,22.30
2022-10-01T00:22:41.905Z,22.20
2022-10-01T00:24:43.484Z,22.20
2022-10-01T00:26:45.535Z,22.20
2022-10-01T00:28:48.727Z,22.20
2022-10-01T00:30:50.329Z,22.20
2022-10-01T00:32:56.758Z,22.30
2022-10-01T00:35:00.264Z,22.20
2022-10-01T00:37:01.909Z,22.20
2022-10-01T00:39:03.681Z,22.20
2022-10-01T00:41:05.565Z,22.20
2022-10-01T00:43:21.567Z,22.20
2022-10-01T00:45:23.206Z,22.20
2022-10-01T00:47:51.509Z,22.20
2022-10-01T00:50:09.794Z,22.20
2022-10-01T00:52:16.290Z,22.20
2022-10-01T00:54:34.566Z,22.20
2022-10-01T00:56:37.500Z,22.20
2022-10-01T00:58:39.491Z,22.20
2022-10-01T01:00:42.747Z,22.20
2022-10-01T01:02:44.635Z,22.20
2022-10-01T01:04:46.287Z,22.20
2022-10-01T01:06:57.532Z,22.20
2022-10-01T01:09:01.467Z,22.10
2022-10-01T01:11:23.056Z,22.10
2022-10-01T01:13:42.485Z,22.20
2022-10-01T01:15:49.946Z,22.10
2022-10-01T01:18:22.268Z,22.10
2022-10-01T01:21:00.707Z,22.10
2022-10-01T01:23:28.543Z,22.10
2022-10-01T01:25:40.949Z,22.20
2022-10-01T01:28:19.673Z,22.20
2022-10-01T01:30:21.421Z,22.10
2022-10-01T01:33:04.595Z,22.20
2022-10-01T01:35:10.123Z,22.10
2022-10-01T01:37:15.378Z,22.10
2022-10-01T01:39:19.158Z,22.20
2022-10-01T01:41:24.563Z,22.10
2022-10-01T01:43:31.279Z,22.10
2022-10-01T01:45:35.574Z,22.10
2022-10-01T01:47:39.713Z,22.20
2022-10-01T01:49:42.633Z,22.20
2022-10-01T01:52:19.852Z,22.10
2022-10-01T01:54:21.577Z,22.10
2022-10-01T01:56:23.860Z,22.10
2022-10-01T01:58:26.257Z,22.10
2022-10-01T02:00:28.361Z,22.10
2022-10-01T02:02:35.966Z,22.10
2022-10-01T02:04:39.816Z,22.10
2022-10-01T02:07:07.005Z,22.10
2022-10-01T02:09:14.370Z,22.10
2022-10-01T02:11:29.660Z,22.10
2022-10-01T02:13:38.844Z,22.10
2022-10-01T02:16:01.190Z,22.10
2022-10-01T02:18:33.859Z,22.10
2022-10-01T02:20:44.460Z,22.10
2022-10-01T02:23:00.829Z,22.00
2022-10-01T02:25:04.410Z,22.00
2022-10-01T02:27:17.702Z,22.00
2022-10-01T02:29:23.153Z,22.00
2022-10-01T02:31:25.516Z,22.00
2022-10-01T02:33:33.155Z,22.00
2022-10-01T02:35:36.489Z,22.00
2022-10-01T02:37:40.391Z,22.00
2022-10-01T02:39:43.286Z,22.00
2022-10-01T02:41:47.955Z,22.00
2022-10-01T02:44:01.263Z,21.90
2022-10-01T02:46:15.635Z,21.90
2022-10-01T02:48:18.156Z,21.90
2022-10-01T02:50:23.110Z,21.80
2022-10-01T02:52:32.652Z,21.90
2022-10-01T02:55:14.915Z,21.80
2022-10-01T02:57:24.329Z,21.90
2022-10-01T02:59:25.964Z,21.90
2022-10-01T03:01:27.910Z,21.90
2022-10-01T03:03:31.009Z,21.90
2022-10-01T03:05:32.656Z,21.80
2022-10-01T03:07:35.644Z,21.80
2022-10-01T03:09:37.298Z,21.80
2022-10-01T03:11:38.875Z,21.80
2022-10-01T03:13:40.443Z,21.70
2022-10-01T03:15:42.095Z,21.80
2022-10-01T03:17:43.718Z,21.70
2022-10-01T03:19:45.806Z,21.70
2022-10-01T03:21:48.252Z,21.70
2022-10-01T03:23:49.859Z,21.70
2022-10-01T03:25:51.460Z,21.80
2022-10-01T03:27:53.094Z,21.70
2022-10-01T03:29:54.771Z,21.70
2022-10-01T03:31:56.457Z,21.70
2022-10-01T03:34:00.711Z,21.70
2022-10-01T03:36:04.322Z,21.70
2022-10-01T03:38:06.505Z,21.60
2022-10-01T03:40:08.552Z,21.70
2022-10-01T03:42:10.240Z,21.60
2022-10-01T03:44:12.205Z,21.70
2022-10-01T03:46:14.390Z,21.70
2022-10-01T03:48:16.177Z,21.70
2022-10-01T03:50:17.817Z,21.70
2022-10-01T03:52:20.336Z,21.70
2022-10-01T03:54:22.089Z,21.70
2022-10-01T03:56:24.532Z,21.70
2022-10-01T03:58:26.487Z,21.60
2022-10-01T04:00:28.079Z,21.70
2022-10-01T04:02:30.163Z,21.60
2022-10-01T04:04:31.873Z,21.70
2022-10-01T04:06:33.473Z,21.60
2022-10-01T04:08:35.104Z,21.60
2022-10-01T04:10:36.779Z,21.60
2022-10-01T04:12:38.380Z,21.60
2022-10-01T04:14:39.984Z,21.60
2022-10-01T04:16:41.566Z,21.60
2022-10-01T04:18:43.210Z,21.60
2022-10-01T04:20:44.815Z,21.50
2022-10-01T04:22:46.872Z,21.60
2022-10-01T04:24:48.459Z,21.60
2022-10-01T04:26:51.891Z,21.60
2022-10-01T04:28:53.486Z,21.70
2022-10-01T04:31:15.146Z,21.70
2022-10-01T04:33:17.049Z,21.70
2022-10-01T04:35:18.966Z,21.70
2022-10-01T04:37:23.822Z,21.60
2022-10-01T04:39:25.439Z,21.70
2022-10-01T04:41:27.028Z,21.80
2022-10-01T04:43:28.644Z,21.90
2022-10-01T04:45:30.397Z,21.80
2022-10-01T04:47:35.603Z,21.80
2022-10-01T04:49:39.404Z,21.90
2022-10-01T04:51:40.989Z,21.90
2022-10-01T04:53:43.078Z,21.90
2022-10-01T04:55:46.546Z,21.90
2022-10-01T04:57:48.394Z,21.80
2022-10-01T04:59:50.898Z,21.80
2022-10-01T05:01:52.653Z,21.80
2022-10-01T05:03:54.263Z,21.90
2022-10-01T05:05:55.859Z,21.90
2022-10-01T05:07:57.444Z,22.00
2022-10-01T05:10:00.406Z,22.10
2022-10-01T05:12:02.201Z,22.10
2022-10-01T05:14:03.900Z,22.10
2022-10-01T05:16:05.669Z,22.10
2022-10-01T05:18:08.163Z,22.10
2022-10-01T05:20:16.964Z,22.00
2022-10-01T05:22:19.240Z,22.00
2022-10-01T05:24:21.076Z,21.90
2022-10-01T05:26:23.031Z,21.80
2022-10-01T05:28:24.743Z,21.90
2022-10-01T05:30:26.403Z,22.00
2022-10-01T05:32:27.987Z,22.00
2022-10-01T05:34:29.653Z,22.00
2022-10-01T05:36:31.261Z,22.00
2022-10-01T05:38:37.152Z,22.00
2022-10-01T05:40:38.759Z,21.90
2022-10-01T05:42:45.900Z,21.90
2022-10-01T05:44:48.931Z,21.90
2022-10-01T05:46:50.724Z,21.90
2022-10-01T05:48:52.642Z,21.90
2022-10-01T05:50:54.476Z,21.90
2022-10-01T05:52:56.072Z,21.90
2022-10-01T05:54:59.187Z,21.90
2022-10-01T05:57:00.920Z,21.80
2022-10-01T05:59:03.224Z,21.80
2022-10-01T06:01:05.039Z,21.80
2022-10-01T06:03:07.740Z,21.70
2022-10-01T06:05:09.489Z,21.70
2022-10-01T06:07:11.084Z,21.80
2022-10-01T06:09:13.471Z,21.70
2022-10-01T06:11:16.899Z,21.80
2022-10-01T06:13:18.554Z,21.70
2022-10-01T06:15:20.184Z,21.60
2022-10-01T06:17:22.931Z,21.60
2022-10-01T06:19:24.519Z,21.50
2022-10-01T06:21:27.452Z,21.50
2022-10-01T06:23:29.125Z,21.60
2022-10-01T06:25:31.110Z,21.50
2022-10-01T06:27:33.420Z,21.60
2022-10-01T06:29:35.018Z,21.70
2022-10-01T06:31:37.698Z,21.70
2022-10-01T06:33:39.685Z,21.60
2022-10-01T06:35:47.206Z,21.60
2022-10-01T06:37:48.822Z,21.60
2022-10-01T06:39:50.687Z,21.70
2022-10-01T06:41:52.284Z,21.70
2022-10-01T06:43:53.872Z,21.70
2022-10-01T06:45:56.377Z,21.70
2022-10-01T06:48:02.551Z,21.60
2022-10-01T06:50:04.521Z,21.50
2022-10-01T06:52:24.797Z,21.50
2022-10-01T06:54:27.246Z,21.50
2022-10-01T06:56:31.727Z,21.50
2022-10-01T06:58:33.909Z,21.40
2022-10-01T07:00:38.945Z,21.40
2022-10-01T07:02:41.366Z,21.40
2022-10-01T07:04:42.995Z,21.40
2022-10-01T07:06:44.572Z,21.40
2022-10-01T07:08:50.179Z,21.40
2022-10-01T07:10:51.751Z,21.40
2022-10-01T07:12:53.348Z,21.40
2022-10-01T07:14:55.152Z,21.40
2022-10-01T07:16:56.793Z,21.40
2022-10-01T07:18:58.396Z,21.40
2022-10-01T07:20:59.983Z,21.40
2022-10-01T07:23:02.039Z,21.40
2022-10-01T07:25:03.848Z,21.40
2022-10-01T07:27:07.487Z,21.40
2022-10-01T07:29:10.404Z,21.40
2022-10-01T07:31:12.302Z,21.40
2022-10-01T07:33:17.964Z,21.40
2022-10-01T07:35:22.553Z,21.50
2022-10-01T07:37:24.319Z,21.40
2022-10-01T07:39:25.953Z,21.40
2022-10-01T07:41:27.581Z,21.40
2022-10-01T07:43:31.061Z,21.40
2022-10-01T07:45:32.726Z,21.40
2022-10-01T07:47:34.733Z,21.40
2022-10-01T07:49:36.344Z,21.40
2022-10-01T07:51:37.947Z,21.40
2022-10-01T07:53:39.554Z,21.40
2022-10-01T07:55:41.322Z,21.40
2022-10-01T07:57:43.014Z,21.40
2022-10-01T07:59:44.664Z,21.30
2022-10-01T08:01:51.490Z,21.30
2022-10-01T08:03:53.515Z,21.30
2022-10-01T08:05:55.095Z,21.30
2022-10-01T08:08:02.236Z,21.30
2022-10-01T08:10:04.526Z,21.30
2022-10-01T08:12:06.155Z,21.20
2022-10-01T08:14:07.820Z,21.20
2022-10-01T08:16:09.824Z,21.30
2022-10-01T08:18:11.814Z,21.20
2022-10-01T08:20:15.719Z,21.30
2022-10-01T08:22:17.343Z,21.20
2022-10-01T08:24:20.032Z,21.20
2022-10-01T08:26:21.660Z,21.20
2022-10-01T08:28:23.341Z,21.20
2022-10-01T08:30:25.439Z,21.30
2022-10-01T08:32:28.052Z,21.20
2022-10-01T08:34:31.323Z,21.20
2022-10-01T08:36:35.590Z,21.20
2022-10-01T08:38:37.578Z,21.20
2022-10-01T08:40:50.992Z,21.20
2022-10-01T08:43:01.952Z,21.20
2022-10-01T08:45:11.378Z,21.20
2022-10-01T08:47:29.319Z,21.20
2022-10-01T08:49:54.011Z,21.30
2022-10-01T08:52:05.072Z,21.20
2022-10-01T08:54:27.984Z,21.20
2022-10-01T08:56:34.032Z,21.20
2022-10-01T08:58:43.683Z,21.20
2022-10-01T09:00:47.961Z,21.20
2022-10-01T09:02:51.281Z,21.20
2022-10-01T09:05:20.673Z,21.20
2022-10-01T09:07:31.877Z,21.20
2022-10-01T09:09:46.914Z,21.20
2022-10-01T09:12:01.046Z,21.20
2022-10-01T09:14:18.928Z,21.20
2022-10-01T09:16:51.442Z,21.20
2022-10-01T09:19:08.669Z,21.20
2022-10-01T09:21:41.702Z,21.20
2022-10-01T09:23:57.215Z,21.30
2022-10-01T09:25:59.872Z,21.30
2022-10-01T09:28:27.523Z,21.30
2022-10-01T09:30:31.692Z,21.40
2022-10-01T09:32:45.784Z,21.40
2022-10-01T09:34:47.888Z,21.30
2022-10-01T09:37:15.072Z,21.30
2022-10-01T09:39:24.540Z,21.30
2022-10-01T09:41:26.569Z,21.30
2022-10-01T09:43:33.899Z,21.30
2022-10-01T09:45:37.053Z,21.30
2022-10-01T09:47:43.607Z,21.30
2022-10-01T09:49:48.172Z,21.30
2022-10-01T09:51:54.698Z,21.30
2022-10-01T09:54:03.207Z,21.30
2022-10-01T09:56:29.571Z,21.30
2022-10-01T09:58:34.862Z,21.30
2022-10-01T10:00:38.658Z,21.30
2022-10-01T10:02:48.855Z,21.30
2022-10-01T10:05:02.015Z,21.30
2022-10-01T10:07:05.420Z,21.30
2022-10-01T10:09:16.376Z,21.30
2022-10-01T10:11:23.734Z,21.30
2022-10-01T10:13:39.236Z,21.30
2022-10-01T10:16:00.525Z,21.40
2022-10-01T10:18:07.868Z,21.50
2022-10-01T10:20:16.218Z,21.50
2022-10-01T10:22:26.254Z,21.40
2022-10-01T10:24:35.890Z,21.40
2022-10-01T10:26:39.976Z,21.50
2022-10-01T10:28:44.657Z,21.40
2022-10-01T10:30:47.648Z,21.40
2022-10-01T10:32:50.187Z,21.40
2022-10-01T10:34:57.020Z,21.40
2022-10-01T10:37:06.788Z,21.40
2022-10-01T10:39:21.639Z,21.40
2022-10-01T10:41:26.805Z,21.40
2022-10-01T10:43:34.060Z,21.40
2022-10-01T10:45:38.669Z,21.40
2022-10-01T10:47:52.424Z,21.40
2022-10-01T10:49:57.397Z,21.40
2022-10-01T10:52:01.127Z,21.40
2022-10-01T10:54:02.729Z,21.40
2022-10-01T10:56:06.231Z,21.50
2022-10-01T10:58:15.246Z,21.40
2022-10-01T11:00:18.107Z,21.70
2022-10-01T11:02:21.257Z,21.80
2022-10-01T11:04:43.666Z,21.90
2022-10-01T11:06:58.396Z,21.80
2022-10-01T11:09:04.732Z,21.90
2022-10-01T11:11:45.528Z,21.80
2022-10-01T11:14:05.710Z,21.80
2022-10-01T11:16:36.360Z,21.80
2022-10-01T11:18:57.565Z,21.80
2022-10-01T11:21:13.519Z,21.70
2022-10-01T11:23:37.574Z,21.60
2022-10-01T11:25:46.799Z,21.60
2022-10-01T11:27:59.967Z,21.50
2022-10-01T11:30:26.392Z,21.50
2022-10-01T11:33:06.617Z,21.50
2022-10-01T11:35:21.892Z,21.50
2022-10-01T11:37:47.525Z,21.50
2022-10-01T11:39:54.524Z,21.50
2022-10-01T11:42:10.967Z,21.50
2022-10-01T11:44:19.060Z,21.50
2022-10-01T11:46:39.505Z,21.40
2022-10-01T11:49:02.108Z,21.40
2022-10-01T11:51:13.735Z,21.40
2022-10-01T11:53:36.695Z,21.40
2022-10-01T11:56:02.612Z,21.40
2022-10-01T11:58:28.650Z,21.40
2022-10-01T12:00:30.555Z,21.40
2022-10-01T12:02:41.524Z,21.40
2022-10-01T12:04:50.786Z,21.40
2022-10-01T12:07:18.327Z,21.40
2022-10-01T12:09:47.746Z,21.40
2022-10-01T12:12:03.682Z,21.40
2022-10-01T12:14:37.685Z,21.40
2022-10-01T12:16:48.170Z,21.40
2022-10-01T12:18:58.365Z,21.40
2022-10-01T12:21:07.631Z,21.40
2022-10-01T12:23:17.926Z,21.40
2022-10-01T12:25:23.501Z,21.40
2022-10-01T12:27:47.760Z,21.40
2022-10-01T12:30:31.913Z,21.40
2022-10-01T12:32:58.118Z,21.40
2022-10-01T12:35:16.252Z,21.40
2022-10-01T12:37:34.367Z,21.40
2022-10-01T12:40:04.277Z,21.40
2022-10-01T12:42:20.895Z,21.40
2022-10-01T12:44:44.429Z,21.40
2022-10-01T12:47:05.721Z,21.40
2022-10-01T12:49:09.998Z,21.40
2022-10-01T12:51:31.984Z,21.40
2022-10-01T12:53:45.106Z,21.40
2022-10-01T12:55:46.657Z,21.40
2022-10-01T12:58:00.104Z,21.40
2022-10-01T13:00:17.944Z,21.40
2022-10-01T13:02:31.848Z,21.40
2022-10-01T13:04:51.290Z,21.40
2022-10-01T13:06:56.028Z,21.40
2022-10-01T13:09:22.020Z,21.40
2022-10-01T13:11:58.465Z,21.40
2022-10-01T13:14:00.864Z,21.40
2022-10-01T13:16:39.599Z,21.40
2022-10-01T13:19:24.849Z,21.40
2022-10-01T13:21:30.335Z,21.40
2022-10-01T13:23:54.417Z,21.40
2022-10-01T13:26:28.413Z,21.50
2022-10-01T13:28:38.053Z,21.50
2022-10-01T13:30:56.691Z,21.50
2022-10-01T13:33:03.250Z,21.50
2022-10-01T13:35:30.513Z,21.50
2022-10-01T13:37:38.410Z,21.50
2022-10-01T13:39:42.154Z,21.50
2022-10-01T13:41:43.847Z,21.50
2022-10-01T13:44:04.168Z,21.50
2022-10-01T13:46:08.921Z,21.60
2022-10-01T13:48:10.626Z,21.60
2022-10-01T13:50:24.559Z,21.60
2022-10-01T13:52:26.518Z,21.60
2022-10-01T13:54:37.252Z,21.60
2022-10-01T13:56:38.929Z,21.60
2022-10-01T13:58:46.880Z,21.60
2022-10-01T14:00:54.323Z,21.60
2022-10-01T14:03:01.889Z,21.60
2022-10-01T14:05:35.215Z,21.60
2022-10-01T14:07:39.155Z,21.60
2022-10-01T14:09:48.522Z,21.60
2022-10-01T14:12:21.053Z,21.60
2022-10-01T14:14:49.354Z,21.60
2022-10-01T14:16:51.162Z,21.60
2022-10-01T14:18:52.809Z,21.60
2022-10-01T14:21:06.054Z,21.60
2022-10-01T14:23:19.951Z,21.60
2022-10-01T14:25:42.044Z,21.50
2022-10-01T14:28:04.763Z,21.50
2022-10-01T14:30:13.254Z,21.60
2022-10-01T14:32:34.057Z,21.60
2022-10-01T14:34:49.517Z,21.60
2022-10-01T14:36:53.538Z,21.50
2022-10-01T14:39:19.938Z,21.60
2022-10-01T14:41:24.395Z,21.50
2022-10-01T14:43:30.840Z,21.60
2022-10-01T14:45:32.515Z,21.60
2022-10-01T14:47:35.882Z,21.50
2022-10-01T14:49:37.488Z,21.50
2022-10-01T14:51:58.580Z,21.50
2022-10-01T14:54:00.508Z,21.50
2022-10-01T14:56:06.684Z,21.50
2022-10-01T14:58:22.671Z,21.50
2022-10-01T15:00:30.385Z,21.50
2022-10-01T15:02:31.996Z,21.50
2022-10-01T15:04:34.375Z,21.50
2022-10-01T15:06:42.591Z,21.50
2022-10-01T15:08:47.740Z,21.50
2022-10-01T15:10:57.974Z,21.50
2022-10-01T15:12:59.854Z,21.50
2022-10-01T15:15:02.084Z,21.50
2022-10-01T15:17:05.928Z,21.50
2022-10-01T15:19:11.907Z,21.50
2022-10-01T15:21:22.802Z,21.50
2022-10-01T15:23:26.287Z,21.50
2022-10-01T15:25:30.005Z,21.50
2022-10-01T15:27:32.776Z,21.50
2022-10-01T15:29:35.405Z,21.50
2022-10-01T15:31:38.066Z,21.50
2022-10-01T15:33:40.906Z,21.50
2022-10-01T15:35:42.721Z,21.50
2022-10-01T15:37:50.049Z,21.50
2022-10-01T15:39:52.779Z,21.50
2022-10-01T15:41:54.945Z,21.50
2022-10-01T15:43:59.788Z,21.50
2022-10-01T15:46:07.206Z,21.50
2022-10-01T15:48:28.779Z,21.50
2022-10-01T15:50:37.000Z,21.50
2022-10-01T15:52:50.688Z,21.50
2022-10-01T15:55:00.385Z,21.50
2022-10-01T15:57:03.464Z,21.50
2022-10-01T15:59:18.793Z,21.50
2022-10-01T16:01:25.952Z,21.50
2022-10-01T16:03:32.825Z,21.50
2022-10-01T16:05:47.092Z,21.50
2022-10-01T16:07:54.443Z,21.50
2022-10-01T16:09:58.843Z,21.40
2022-10-01T16:12:18.232Z,21.40
2022-10-01T16:14:43.665Z,21.40
2022-10-01T16:16:45.332Z,21.50
2022-10-01T16:19:21.528Z,21.50
2022-10-01T16:21:23.341Z,21.50
2022-10-01T16:23:45.126Z,21.50
2022-10-01T16:25:46.776Z,21.40
2022-10-01T16:28:04.265Z,21.40
2022-10-01T16:30:18.892Z,21.40
2022-10-01T16:32:20.616Z,21.40
2022-10-01T16:34:22.265Z,21.40
2022-10-01T16:36:28.221Z,21.40
2022-10-01T16:38:29.891Z,21.40
2022-10-01T16:40:33.599Z,21.40
2022-10-01T16:42:37.149Z,21.40
2022-10-01T16:44:39.856Z,21.40
2022-10-01T16:46:41.951Z,21.40
2022-10-01T16:48:48.884Z,21.40
2022-10-01T16:50:53.556Z,21.40
2022-10-01T16:52:56.112Z,21.40
2022-10-01T16:54:57.713Z,21.40
2022-10-01T16:56:59.570Z,21.40
2022-10-01T16:59:01.165Z,21.30
2022-10-01T17:01:08.567Z,21.40
2022-10-01T17:03:17.326Z,21.40
2022-10-01T17:05:28.254Z,21.40
2022-10-01T17:07:29.862Z,21.40
2022-10-01T17:09:31.658Z,21.40
2022-10-01T17:11:34.409Z,21.40
2022-10-01T17:13:36.036Z,21.40
2022-10-01T17:15:37.778Z,21.40
2022-10-01T17:17:39.420Z,21.40
2022-10-01T17:19:41.017Z,21.40
2022-10-01T17:21:42.742Z,21.30
2022-10-01T17:23:44.329Z,21.40
2022-10-01T17:25:46.550Z,21.40
2022-10-01T17:27:48.472Z,21.40
2022-10-01T17:29:50.210Z,21.40
2022-10-01T17:31:53.259Z,21.40
2022-10-01T17:33:55.074Z,21.40
2022-10-01T17:35:56.681Z,21.40
2022-10-01T17:37:58.798Z,21.30
2022-10-01T17:40:00.682Z,21.40
2022-10-01T17:42:02.369Z,21.30
2022-10-01T17:44:03.954Z,21.30
2022-10-01T17:46:05.783Z,21.30
2022-10-01T17:48:07.615Z,21.30
2022-10-01T17:50:09.388Z,21.30
2022-10-01T17:52:11.065Z,21.40
2022-10-01T17:54:12.642Z,21.30
2022-10-01T17:56:16.561Z,21.30
2022-10-01T17:58:18.236Z,21.30
2022-10-01T18:00:20.314Z,21.30
2022-10-01T18:02:40.949Z,21.30
2022-10-01T18:04:43.501Z,21.30
2022-10-01T18:06:48.647Z,21.30
2022-10-01T18:08:55.568Z,21.30
2022-10-01T18:11:08.603Z,21.30
2022-10-01T18:13:10.206Z,21.30
2022-10-01T18:15:13.618Z,21.30
2022-10-01T18:17:15.428Z,21.30
2022-10-01T18:19:52.783Z,21.30
2022-10-01T18:21:38.657Z,21.30
2022-10-01T18:23:43.302Z,21.30
2022-10-01T18:25:44.887Z,21.30
2022-10-01T18:27:50.005Z,21.30
2022-10-01T18:29:51.784Z,21.30
2022-10-01T18:32:22.078Z,21.30
2022-10-01T18:34:29.764Z,21.30
2022-10-01T18:36:55.732Z,21.30
2022-10-01T18:39:23.808Z,21.30
2022-10-01T18:41:39.647Z,21.30
2022-10-01T18:43:43.477Z,21.30
2022-10-01T18:46:02.989Z,21.30
2022-10-01T18:48:35.507Z,21.30
2022-10-01T18:50:43.357Z,21.30
2022-10-01T18:52:55.877Z,21.30
2022-10-01T18:55:21.332Z,21.30
2022-10-01T18:58:01.227Z,21.30
2022-10-01T19:00:11.615Z,21.30
2022-10-01T19:02:16.065Z,21.30
2022-10-01T19:04:20.470Z,21.30
2022-10-01T19:06:42.557Z,21.30
2022-10-01T19:08:57.044Z,21.30
2022-10-01T19:11:07.213Z,21.30
2022-10-01T19:13:16.926Z,21.30
2022-10-01T19:15:40.596Z,21.30
2022-10-01T19:18:12.505Z,21.30
2022-10-01T19:20:30.627Z,21.30
2022-10-01T19:23:06.270Z,21.30
2022-10-01T19:25:49.379Z,21.30
2022-10-01T19:28:18.850Z,21.30
2022-10-01T19:30:20.748Z,21.30
2022-10-01T19:32:28.253Z,21.30
2022-10-01T19:34:49.689Z,21.30
2022-10-01T19:36:59.676Z,21.30
2022-10-01T19:39:06.313Z,21.30
2022-10-01T19:41:25.072Z,21.30
2022-10-01T19:43:52.552Z,21.30
2022-10-01T19:46:09.507Z,21.30
2022-10-01T19:48:26.751Z,21.30
2022-10-01T19:50:33.762Z,21.30
2022-10-01T19:52:38.184Z,21.20
2022-10-01T19:54:54.591Z,21.20
2022-10-01T19:57:02.297Z,21.20
2022-10-01T19:59:21.293Z,21.20
2022-10-01T20:01:29.784Z,21.20
2022-10-01T20:03:34.789Z,21.30
2022-10-01T20:05:49.313Z,21.20
2022-10-01T20:08:33.028Z,21.20
2022-10-01T20:10:45.183Z,21.20
2022-10-01T20:13:04.734Z,21.30
2022-10-01T20:15:34.469Z,21.20
2022-10-01T20:17:54.649Z,21.30
2022-10-01T20:20:18.584Z,21.20
2022-10-01T20:23:01.526Z,21.30
2022-10-01T20:25:09.181Z,21.20
2022-10-01T20:28:01.884Z,21.20
2022-10-01T20:30:10.442Z,21.30
2022-10-01T20:32:21.695Z,21.20
2022-10-01T20:34:50.465Z,21.20
2022-10-01T20:36:58.321Z,21.30
2022-10-01T20:39:25.299Z,21.20
2022-10-01T20:41:29.990Z,21.20
2022-10-01T20:43:49.252Z,21.20
2022-10-01T20:45:53.547Z,21.20
2022-10-01T20:48:10.180Z,21.20
2022-10-01T20:50:20.594Z,21.20
2022-10-01T20:52:37.799Z,21.20
2022-10-01T20:54:46.581Z,21.20
2022-10-01T20:56:54.967Z,21.20
2022-10-01T20:59:00.704Z,21.20
2022-10-01T21:01:10.070Z,21.20
2022-10-01T21:03:33.828Z,21.20
2022-10-01T21:05:42.361Z,21.20
2022-10-01T21:07:52.501Z,21.20
2022-10-01T21:09:57.829Z,21.20
2022-10-01T21:12:15.053Z,21.20
2022-10-01T21:14:19.600Z,21.20
2022-10-01T21:16:43.134Z,21.20
2022-10-01T21:19:22.024Z,21.20
2022-10-01T21:21:43.488Z,21.20
2022-10-01T21:24:11.797Z,21.20
2022-10-01T21:26:25.867Z,21.20
2022-10-01T21:28:36.688Z,21.20
2022-10-01T21:31:08.113Z,21.20
2022-10-01T21:33:13.820Z,21.20
2022-10-01T21:35:29.709Z,21.20
2022-10-01T21:37:36.552Z,21.20
2022-10-01T21:39:57.744Z,21.20
2022-10-01T21:42:19.588Z,21.20
2022-10-01T21:44:59.745Z,21.20
2022-10-01T21:47:15.783Z,21.20
2022-10-01T21:49:44.667Z,21.20
2022-10-01T21:51:55.180Z,21.20
2022-10-01T21:54:40.316Z,21.20
2022-10-01T21:57:18.875Z,21.20
2022-10-01T21:59:39.599Z,21.20
2022-10-01T22:02:08.372Z,21.20
2022-10-01T22:04:35.283Z,21.20
2022-10-01T22:06:45.648Z,21.20
2022-10-01T22:08:57.021Z,21.20
2022-10-01T22:11:03.728Z,21.20
2022-10-01T22:13:19.047Z,21.20
2022-10-01T22:15:36.722Z,21.20
2022-10-01T22:17:39.482Z,21.20
2022-10-01T22:19:47.697Z,21.20
2022-10-01T22:21:55.865Z,21.20
2022-10-01T22:24:04.300Z,21.20
2022-10-01T22:26:20.771Z,21.20
2022-10-01T22:28:31.041Z,21.20
2022-10-01T22:30:36.856Z,21.20
2022-10-01T22:33:01.441Z,21.20
2022-10-01T22:35:25.226Z,21.20
2022-10-01T22:37:43.963Z,21.20
2022-10-01T22:39:58.435Z,21.20
2022-10-01T22:42:12.303Z,21.20
2022-10-01T22:44:19.900Z,21.20
2022-10-01T22:46:41.100Z,21.20
2022-10-01T22:49:20.470Z,21.20
2022-10-01T22:51:33.942Z,21.20
2022-10-01T22:53:46.089Z,21.20
2022-10-01T22:55:54.698Z,21.20
2022-10-01T22:58:09.291Z,21.20
2022-10-01T23:00:14.572Z,21.20
2022-10-01T23:02:32.734Z,21.20
2022-10-01T23:05:13.181Z,21.20
2022-10-01T23:07:30.749Z,21.20
2022-10-01T23:09:43.588Z,21.20
2022-10-01T23:12:17.705Z,21.20
2022-10-01T23:14:28.136Z,21.20
2022-10-01T23:16:45.079Z,21.20
2022-10-01T23:19:03.099Z,21.20
2022-10-01T23:21:16.296Z,21.20
2022-10-01T23:23:32.123Z,21.20
2022-10-01T23:25:39.583Z,21.20
2022-10-01T23:27:50.269Z,21.20
2022-10-01T23:30:08.528Z,21.20
2022-10-01T23:32:31.042Z,21.20
2022-10-01T23:34:59.934Z,21.20
2022-10-01T23:37:34.740Z,21.20
2022-10-01T23:39:40.966Z,21.20
2022-10-01T23:41:53.504Z,21.20
2022-10-01T23:44:05.223Z,21.20
2022-10-01T23:46:12.058Z,21.20
2022-10-01T23:48:37.952Z,21.20
2022-10-01T23:50:57.843Z,21.20
2022-10-01T23:53:47.605Z,21.20
2022-10-01T23:56:25.797Z,21.20
2022-10-01T23:58:30.889Z,21.20
